Air Resources Laboratory banner image
Air Resources Laboratory web site National Oceanic and Atmospheric Administration (NOAA)

ut metar


KCDC 220953Z AUTO 00000KT 10SM CLR 17/14 A3024 RMK AO2 SLP160 T01720139 $=
KCNY 220953Z AUTO 00000KT 10SM CLR 26/09 A3011 RMK AO2 SLP120 T02610094=
KDTA 220955Z AUTO 14004KT 10SM CLR 21/10 A3017 RMK AO1=
KENV 220956Z AUTO 29009KT 10SM CLR 27/09 A3011 RMK AO2 SLP147 T02720094=
KHIF 220958Z AUTO 13005KT 10SM OVC170 24/11 A3015 RMK AO2 SLP137 T02420105=
KHVE 220955Z AUTO 00000KT 10SM CLR 20/13 A3016 RMK AO2=
KLGU 220951Z AUTO 36007KT 10SM CLR 21/12 A3012 RMK AO2 SLP135 T02110122=
KMLF 220952Z AUTO 19006KT 10SM CLR 18/14 A3019 RMK AO2 SLP146 T01830144=
KOGD 220953Z AUTO 15006KT 10SM CLR 25/10 A3012 RMK AO2 SLP126 T02500100=
KPUC 220953Z AUTO 00000KT 10SM CLR 21/10 RMK AO2 SLPNO T02060100 $=
KSGU 220956Z AUTO 13007KT 10SM FEW120 24/16 A3008 RMK AO2 SLP148 T02440156 PNO
 $=
KSLC 220954Z 16006KT 10SM BKN180 24/13 A3011 RMK AO2 SLP129 T02440133=
KSLR 220955Z AUTO 00000KT 10SM CLR 28/18 A2992 RMK AO2 T02770181=
KVEL 220953Z AUTO 22003KT 10SM CLR 21/12 A3020 RMK AO2 SLP142 T02110117=